Time;durP1;ratioP1;P1;durP2;ratioP2;P2;SDS_P1;SDS_P2;PMS_P1;PMS_P2;Temp;Humidity;BMP_temperature;BMP_pressure;BME280_temperature;BME280_humidity;BME280_pressure;Samples;Min_cycle;Max_cycle;Signal;HPM_P1;HPM_P2
2023/12/06 00:01:04;;;;;;;50.30;15.73;;;2.70;99.90;;;;;;4892569;29;20872;-70
2023/12/06 00:03:30;;;;;;;40.70;13.30;;;2.80;99.90;;;;;;4891396;29;20199;-70
2023/12/06 00:05:56;;;;;;;40.53;11.90;;;2.80;99.90;;;;;;4887789;29;20223;-71
2023/12/06 00:08:21;;;;;;;39.33;11.37;;;2.80;99.90;;;;;;4887167;29;20226;-69
2023/12/06 00:10:47;;;;;;;33.17;11.47;;;2.80;99.90;;;;;;4887199;29;20279;-71
2023/12/06 00:13:13;;;;;;;34.23;12.37;;;2.80;99.90;;;;;;4886446;29;20183;-69
2023/12/06 00:15:39;;;;;;;52.07;13.47;;;2.80;99.90;;;;;;4883695;29;20215;-69
2023/12/06 00:18:05;;;;;;;41.67;11.97;;;2.80;99.90;;;;;;4879553;29;20435;-69
2023/12/06 00:20:30;;;;;;;49.97;13.77;;;2.80;99.90;;;;;;4882620;29;20625;-71
2023/12/06 00:22:56;;;;;;;51.40;13.23;;;2.70;99.90;;;;;;4883772;29;20192;-70
2023/12/06 00:25:22;;;;;;;44.53;12.80;;;2.70;99.90;;;;;;4882415;29;20220;-69
2023/12/06 00:27:48;;;;;;;35.97;13.30;;;2.70;99.90;;;;;;4883149;29;20596;-69
2023/12/06 00:30:14;;;;;;;36.40;12.47;;;2.70;99.90;;;;;;4883842;29;20451;-69
2023/12/06 00:32:39;;;;;;;52.07;14.40;;;2.70;99.90;;;;;;4882883;29;20204;-69
2023/12/06 00:35:08;;;;;;;45.60;11.30;;;2.60;99.90;;;;;;4883675;29;20219;-71
2023/12/06 00:37:33;;;;;;;35.67;11.33;;;2.60;99.90;;;;;;4885078;29;20195;-70
2023/12/06 00:39:59;;;;;;;34.80;10.90;;;2.70;99.90;;;;;;4886567;29;20408;-71
2023/12/06 00:42:25;;;;;;;23.73;9.50;;;2.60;99.90;;;;;;4885817;29;20184;-70
2023/12/06 00:44:50;;;;;;;28.37;10.23;;;2.60;99.90;;;;;;4887956;29;20216;-71
2023/12/06 00:47:16;;;;;;;22.80;9.57;;;2.60;99.90;;;;;;4887177;29;20219;-71
2023/12/06 00:49:42;;;;;;;24.33;9.47;;;2.50;99.90;;;;;;4887701;29;20312;-70
2023/12/06 00:52:08;;;;;;;50.93;14.77;;;2.50;99.90;;;;;;4893329;29;20863;-69
2023/12/06 00:54:33;;;;;;;50.53;13.67;;;2.50;99.90;;;;;;4892875;29;20212;-71
2023/12/06 00:56:59;;;;;;;39.70;13.07;;;2.40;99.90;;;;;;4885219;29;20231;-71
2023/12/06 00:59:25;;;;;;;42.63;13.00;;;2.40;99.90;;;;;;4885796;29;20200;-69
2023/12/06 01:01:50;;;;;;;37.47;12.27;;;2.40;99.90;;;;;;4885378;29;20239;-70
2023/12/06 01:04:16;;;;;;;36.50;13.63;;;2.40;99.90;;;;;;4883394;29;20188;-69
2023/12/06 01:06:42;;;;;;;50.93;14.03;;;2.30;99.90;;;;;;4885559;29;20234;-71
2023/12/06 01:09:08;;;;;;;40.70;13.20;;;2.30;99.90;;;;;;4885605;29;20278;-70
2023/12/06 01:11:33;;;;;;;43.30;14.10;;;2.30;99.90;;;;;;4884912;29;20202;-71
2023/12/06 01:13:59;;;;;;;51.00;13.73;;;2.30;99.90;;;;;;4884847;29;20712;-71
2023/12/06 01:16:25;;;;;;;49.13;13.77;;;2.30;99.90;;;;;;4883592;29;20275;-71
2023/12/06 01:18:50;;;;;;;47.47;13.07;;;2.20;99.90;;;;;;4879242;29;20532;-69
2023/12/06 01:21:16;;;;;;;55.73;14.47;;;2.20;99.90;;;;;;4884655;29;20588;-70
2023/12/06 01:23:42;;;;;;;39.10;12.20;;;2.20;99.90;;;;;;4884823;29;20188;-71
2023/12/06 01:26:07;;;;;;;40.77;12.80;;;2.30;99.90;;;;;;4883972;29;20714;-71
2023/12/06 01:28:33;;;;;;;47.97;15.03;;;2.30;99.90;;;;;;4882701;29;20183;-71
2023/12/06 01:30:58;;;;;;;44.77;14.43;;;2.20;99.90;;;;;;4882391;29;20212;-69
2023/12/06 01:33:24;;;;;;;58.97;15.53;;;2.20;99.90;;;;;;4879757;29;20183;-70
2023/12/06 01:35:50;;;;;;;53.93;16.43;;;2.20;99.90;;;;;;4881598;29;20226;-69
2023/12/06 01:38:15;;;;;;;57.53;15.50;;;2.20;99.90;;;;;;4882131;29;20630;-69
2023/12/06 01:40:41;;;;;;;54.20;16.97;;;2.20;99.90;;;;;;4882154;29;21028;-69
2023/12/06 01:43:08;;;;;;;78.53;18.27;;;2.20;99.90;;;;;;4882068;29;20192;-69
2023/12/06 01:45:33;;;;;;;85.33;19.27;;;2.10;99.90;;;;;;4882592;29;20306;-69
2023/12/06 01:48:00;;;;;;;87.93;19.83;;;2.10;99.90;;;;;;4880067;29;20536;-69
2023/12/06 01:50:27;;;;;;;104.87;20.87;;;2.10;99.90;;;;;;4881950;29;20198;-69
2023/12/06 01:52:57;;;;;;;78.00;19.80;;;2.10;99.90;;;;;;4881255;29;20499;-69
2023/12/06 01:55:23;;;;;;;97.37;21.50;;;2.10;99.90;;;;;;4881949;29;20452;-69
2023/12/06 01:57:50;;;;;;;94.43;26.60;;;2.10;99.90;;;;;;4882051;29;20475;-69
2023/12/06 02:00:16;;;;;;;77.97;22.47;;;2.00;99.90;;;;;;4881626;29;20833;-69
2023/12/06 02:02:42;;;;;;;66.50;19.73;;;2.00;99.90;;;;;;4881125;29;20432;-69
2023/12/06 02:05:09;;;;;;;72.97;19.13;;;2.00;99.90;;;;;;4881759;29;20436;-69
2023/12/06 02:07:35;;;;;;;76.97;18.87;;;2.00;99.90;;;;;;4881743;29;20705;-69
2023/12/06 02:10:02;;;;;;;95.13;22.50;;;2.00;99.90;;;;;;4881813;29;20416;-69
2023/12/06 02:12:28;;;;;;;76.90;21.20;;;2.00;99.90;;;;;;4881002;29;20448;-70
2023/12/06 02:14:57;;;;;;;97.07;21.73;;;2.00;99.90;;;;;;4882068;29;20769;-69
2023/12/06 02:17:23;;;;;;;135.80;28.87;;;2.10;99.90;;;;;;4876456;29;20204;-71
2023/12/06 02:19:50;;;;;;;138.13;29.40;;;2.00;99.90;;;;;;4881126;29;20420;-69
2023/12/06 02:22:16;;;;;;;179.57;37.17;;;1.90;99.90;;;;;;4881105;29;20459;-69
2023/12/06 02:24:43;;;;;;;150.07;32.70;;;1.90;99.90;;;;;;4881020;29;20408;-69
2023/12/06 02:27:09;;;;;;;158.40;37.20;;;1.90;99.90;;;;;;4880535;29;20480;-69
2023/12/06 02:29:35;;;;;;;188.77;38.80;;;1.90;99.90;;;;;;4880984;29;20435;-69
2023/12/06 02:32:01;;;;;;;146.90;35.57;;;1.80;99.90;;;;;;4881627;29;20196;-68
2023/12/06 02:34:27;;;;;;;176.83;37.30;;;1.80;99.90;;;;;;4878544;29;20427;-69
2023/12/06 02:36:57;;;;;;;193.73;39.77;;;1.80;99.90;;;;;;4884685;29;20309;-69
2023/12/06 02:39:27;;;;;;;195.97;37.27;;;1.80;99.90;;;;;;4881306;29;20600;-69
2023/12/06 02:41:53;;;;;;;203.33;40.80;;;1.80;99.90;;;;;;4880741;29;20420;-70
2023/12/06 02:44:18;;;;;;;205.97;42.00;;;1.70;99.90;;;;;;4880890;29;20432;-70
2023/12/06 02:46:44;;;;;;;171.87;38.93;;;1.70;99.90;;;;;;4880553;29;20227;-69
2023/12/06 02:49:10;;;;;;;155.57;37.30;;;1.70;99.90;;;;;;4878937;29;20231;-69
2023/12/06 02:51:35;;;;;;;173.20;37.30;;;1.70;99.90;;;;;;4880848;29;20207;-69
2023/12/06 02:54:01;;;;;;;174.97;36.30;;;1.70;99.90;;;;;;4880609;29;20202;-68
2023/12/06 02:56:26;;;;;;;149.00;34.90;;;1.70;99.90;;;;;;4880556;29;20521;-69
2023/12/06 02:58:52;;;;;;;154.20;35.40;;;1.70;99.90;;;;;;4880697;29;20544;-70
2023/12/06 03:01:18;;;;;;;167.80;34.63;;;1.70;99.90;;;;;;4880966;29;20199;-69
2023/12/06 03:03:43;;;;;;;258.23;41.47;;;1.70;99.90;;;;;;4878652;29;20309;-69
2023/12/06 03:06:09;;;;;;;208.30;41.40;;;1.70;99.90;;;;;;4880258;29;20624;-69
2023/12/06 03:08:35;;;;;;;209.50;41.80;;;1.60;99.90;;;;;;4880402;29;20179;-69
2023/12/06 03:11:00;;;;;;;219.27;40.77;;;1.70;99.90;;;;;;4880312;29;20614;-69
2023/12/06 03:13:26;;;;;;;185.00;39.03;;;1.60;99.90;;;;;;4880792;29;20207;-69
2023/12/06 03:15:51;;;;;;;169.17;38.23;;;1.70;99.90;;;;;;4880167;29;20234;-68
2023/12/06 03:18:17;;;;;;;157.70;37.40;;;1.60;99.90;;;;;;4877497;29;20195;-69
2023/12/06 03:20:42;;;;;;;146.60;32.93;;;1.60;99.90;;;;;;4880948;29;20206;-69
2023/12/06 03:23:08;;;;;;;161.63;37.17;;;1.60;99.90;;;;;;4880908;29;20289;-68
2023/12/06 03:25:34;;;;;;;189.33;41.60;;;1.60;99.90;;;;;;4880347;29;20223;-69
2023/12/06 03:27:59;;;;;;;161.47;38.60;;;1.60;99.90;;;;;;4880522;29;20220;-70
2023/12/06 03:30:25;;;;;;;144.73;34.80;;;1.60;99.90;;;;;;4880663;29;20203;-69
2023/12/06 03:32:51;;;;;;;141.47;33.70;;;1.60;99.90;;;;;;4878972;29;20300;-69
2023/12/06 03:35:17;;;;;;;133.63;32.80;;;1.60;99.90;;;;;;4880869;29;20212;-68
2023/12/06 03:37:42;;;;;;;142.73;32.67;;;1.60;99.90;;;;;;4880231;29;20457;-68
2023/12/06 03:40:08;;;;;;;182.07;37.33;;;1.60;99.90;;;;;;4881117;29;20221;-68
2023/12/06 03:42:34;;;;;;;118.90;32.57;;;1.60;99.90;;;;;;4879880;29;20203;-69
2023/12/06 03:45:00;;;;;;;149.60;35.67;;;1.60;99.90;;;;;;4880707;29;20463;-69
2023/12/06 03:47:26;;;;;;;178.53;41.90;;;1.60;99.90;;;;;;4879608;29;20259;-69
2023/12/06 03:49:52;;;;;;;147.33;37.60;;;1.50;99.90;;;;;;4879152;29;20305;-68
2023/12/06 03:52:18;;;;;;;175.87;40.73;;;1.60;99.90;;;;;;4879985;29;20451;-68
2023/12/06 03:54:44;;;;;;;155.40;38.10;;;1.60;99.90;;;;;;4879400;29;20444;-69
2023/12/06 03:57:09;;;;;;;151.10;36.40;;;1.60;99.90;;;;;;4879659;29;20262;-69
2023/12/06 03:59:35;;;;;;;185.50;42.60;;;1.60;99.90;;;;;;4880358;29;20507;-70
2023/12/06 04:02:00;;;;;;;146.07;36.50;;;1.60;99.90;;;;;;4880069;29;20196;-68
2023/12/06 04:04:26;;;;;;;156.10;37.40;;;1.60;99.90;;;;;;4880345;29;20191;-68
2023/12/06 04:06:52;;;;;;;138.17;36.00;;;1.60;99.90;;;;;;4880181;29;20227;-69
2023/12/06 04:09:18;;;;;;;164.63;38.47;;;1.60;99.90;;;;;;4879936;29;20469;-68
2023/12/06 04:11:44;;;;;;;150.17;38.27;;;1.50;99.90;;;;;;4879794;29;20191;-69
2023/12/06 04:14:09;;;;;;;162.90;41.63;;;1.50;99.90;;;;;;4879670;29;20265;-68
2023/12/06 04:16:37;;;;;;;190.53;48.30;;;1.50;99.90;;;;;;4882209;29;20440;-70
2023/12/06 04:19:02;;;;;;;171.33;41.57;;;1.50;99.90;;;;;;4881371;29;20208;-70
2023/12/06 04:21:28;;;;;;;177.07;42.57;;;1.50;99.90;;;;;;4886563;29;20510;-70
2023/12/06 04:23:54;;;;;;;194.87;42.73;;;1.50;99.90;;;;;;4883092;29;20548;-69
2023/12/06 04:26:20;;;;;;;193.53;45.00;;;1.50;99.90;;;;;;4889541;29;20219;-69
2023/12/06 04:28:46;;;;;;;160.80;40.57;;;1.50;99.90;;;;;;4883889;29;20184;-69
2023/12/06 04:31:12;;;;;;;178.03;43.17;;;1.50;99.90;;;;;;4884130;29;20602;-70
2023/12/06 04:33:37;;;;;;;189.20;47.20;;;1.50;99.90;;;;;;4882261;29;20227;-68
2023/12/06 04:36:04;;;;;;;183.23;45.83;;;1.50;99.90;;;;;;4882592;29;20298;-71
2023/12/06 04:38:30;;;;;;;157.37;39.17;;;1.50;99.90;;;;;;4883655;29;20928;-69
2023/12/06 04:40:56;;;;;;;172.03;40.33;;;1.60;99.90;;;;;;4885084;29;20504;-69
2023/12/06 04:43:22;;;;;;;175.67;44.00;;;1.60;99.90;;;;;;4885483;29;20254;-70
2023/12/06 04:45:47;;;;;;;168.27;37.87;;;1.60;99.90;;;;;;4885503;29;20224;-70
2023/12/06 04:48:13;;;;;;;157.83;37.23;;;1.60;99.90;;;;;;4881561;29;20279;-70
2023/12/06 04:50:39;;;;;;;167.50;36.20;;;1.60;99.90;;;;;;4884832;29;20187;-70
2023/12/06 04:53:04;;;;;;;178.27;38.97;;;1.70;99.90;;;;;;4885368;29;20214;-71
2023/12/06 04:55:30;;;;;;;186.43;40.80;;;1.70;99.90;;;;;;4884366;29;20239;-70
2023/12/06 04:57:55;;;;;;;151.67;33.87;;;1.70;99.90;;;;;;4882934;29;20287;-68
2023/12/06 05:00:22;;;;;;;125.57;32.77;;;1.70;99.90;;;;;;4881782;29;20441;-70
2023/12/06 05:02:48;;;;;;;115.73;31.03;;;1.80;99.90;;;;;;4880117;29;20204;-69
2023/12/06 05:05:13;;;;;;;180.73;39.00;;;1.70;99.90;;;;;;4883552;29;20459;-70
2023/12/06 05:07:39;;;;;;;185.30;37.40;;;1.80;99.90;;;;;;4883355;29;20231;-69
2023/12/06 05:10:05;;;;;;;193.17;44.63;;;1.80;99.90;;;;;;4883708;29;20200;-70
2023/12/06 05:12:32;;;;;;;222.13;47.17;;;1.80;99.90;;;;;;4884118;29;20536;-70
2023/12/06 05:14:57;;;;;;;211.20;45.17;;;1.80;99.90;;;;;;4884740;29;20690;-70
2023/12/06 05:17:23;;;;;;;188.37;42.93;;;1.80;99.90;;;;;;4880486;29;20417;-69
2023/12/06 05:19:49;;;;;;;188.97;42.83;;;1.80;99.90;;;;;;4884506;29;20226;-71
2023/12/06 05:22:14;;;;;;;168.93;38.67;;;1.80;99.90;;;;;;4888620;29;20202;-69
2023/12/06 05:24:40;;;;;;;148.33;36.43;;;1.80;99.90;;;;;;4885130;29;20798;-70
2023/12/06 05:27:05;;;;;;;178.97;40.33;;;1.90;99.90;;;;;;4882679;29;20259;-70
2023/12/06 05:29:32;;;;;;;215.63;44.10;;;1.90;99.90;;;;;;4883855;29;20195;-71
2023/12/06 05:31:58;;;;;;;236.00;48.57;;;1.90;99.90;;;;;;4883888;29;20188;-70
2023/12/06 05:34:24;;;;;;;214.07;47.20;;;1.90;99.90;;;;;;4884491;29;20459;-69
2023/12/06 05:36:50;;;;;;;226.97;49.77;;;1.90;99.90;;;;;;4885632;29;20425;-70
2023/12/06 05:39:15;;;;;;;224.07;47.83;;;1.90;99.90;;;;;;4884939;29;20590;-71
2023/12/06 05:41:41;;;;;;;145.60;39.17;;;1.90;99.90;;;;;;4884054;29;20235;-70
2023/12/06 05:44:06;;;;;;;180.90;41.60;;;2.00;99.90;;;;;;4883008;29;20191;-70
2023/12/06 05:46:32;;;;;;;181.17;41.80;;;2.00;99.90;;;;;;4882914;29;20275;-70
2023/12/06 05:48:58;;;;;;;205.67;43.97;;;2.00;99.90;;;;;;4882065;29;20493;-71
2023/12/06 05:51:24;;;;;;;234.93;51.50;;;2.00;99.90;;;;;;4884487;29;20192;-71
2023/12/06 05:53:49;;;;;;;183.80;45.67;;;2.00;99.90;;;;;;4883445;29;20196;-70
2023/12/06 05:56:15;;;;;;;218.93;48.43;;;2.00;99.90;;;;;;4839073;29;1337354;-71
2023/12/06 05:58:42;;;;;;;191.10;45.47;;;2.00;99.90;;;;;;4886073;29;20244;-71
2023/12/06 06:01:08;;;;;;;184.13;44.73;;;2.00;99.90;;;;;;4885673;29;20523;-70
2023/12/06 06:03:34;;;;;;;203.33;48.87;;;2.00;99.90;;;;;;4888728;29;20447;-70
2023/12/06 06:06:06;;;;;;;207.40;50.30;;;2.10;99.90;;;;;;4886717;29;20479;-70
2023/12/06 06:08:34;;;;;;;210.60;47.30;;;2.10;99.90;;;;;;4884017;29;20747;-70
2023/12/06 06:11:00;;;;;;;206.00;51.23;;;2.10;99.90;;;;;;4884207;29;20452;-71
2023/12/06 06:13:28;;;;;;;191.60;47.20;;;2.10;99.90;;;;;;4884199;29;20419;-74
2023/12/06 06:15:55;;;;;;;185.30;47.90;;;2.10;99.90;;;;;;4886256;29;20520;-73
2023/12/06 06:18:21;;;;;;;194.33;48.27;;;2.10;99.90;;;;;;4881374;29;20496;-72
2023/12/06 06:20:46;;;;;;;219.87;51.20;;;2.10;99.90;;;;;;4885742;29;20452;-73
2023/12/06 06:23:12;;;;;;;184.23;45.20;;;2.10;99.90;;;;;;4885511;29;20198;-73
2023/12/06 06:25:38;;;;;;;194.00;49.00;;;2.10;99.90;;;;;;4885335;29;20272;-72
2023/12/06 06:28:04;;;;;;;181.00;43.60;;;2.20;99.90;;;;;;4885692;29;20557;-73
2023/12/06 06:30:30;;;;;;;238.17;54.33;;;2.20;99.90;;;;;;4884488;29;20532;-71
2023/12/06 06:32:55;;;;;;;228.30;53.20;;;2.20;99.90;;;;;;4883588;29;20356;-73
2023/12/06 06:35:22;;;;;;;198.27;51.40;;;2.20;99.90;;;;;;4886896;29;20243;-74
2023/12/06 06:37:48;;;;;;;210.83;51.77;;;2.20;99.90;;;;;;4888203;29;20184;-73
2023/12/06 06:40:17;;;;;;;196.07;49.80;;;2.20;99.90;;;;;;4885865;29;20464;-74
2023/12/06 06:42:43;;;;;;;161.57;44.40;;;2.20;99.90;;;;;;4888326;29;20428;-71
2023/12/06 06:45:09;;;;;;;167.03;44.47;;;2.30;99.90;;;;;;4885922;29;20511;-73
2023/12/06 06:47:38;;;;;;;262.47;56.80;;;2.20;99.90;;;;;;4882696;29;20193;-71
2023/12/06 06:50:04;;;;;;;250.63;58.60;;;2.20;99.90;;;;;;4869646;29;20420;-72
2023/12/06 06:52:32;;;;;;;240.90;56.53;;;2.30;99.90;;;;;;4886126;29;20887;-72
2023/12/06 06:54:58;;;;;;;237.00;53.37;;;2.20;99.90;;;;;;4884543;29;20448;-72
2023/12/06 06:57:24;;;;;;;200.20;50.40;;;2.20;99.90;;;;;;4887009;29;20551;-74
2023/12/06 06:59:49;;;;;;;238.57;57.40;;;2.30;99.90;;;;;;4887166;29;20253;-74
2023/12/06 07:02:16;;;;;;;280.87;61.90;;;2.30;99.90;;;;;;4883222;29;20484;-72
2023/12/06 07:04:43;;;;;;;248.97;56.37;;;2.30;99.90;;;;;;4883619;29;20203;-72
2023/12/06 07:07:08;;;;;;;279.70;61.47;;;2.30;99.90;;;;;;4885134;29;20770;-75
2023/12/06 07:09:35;;;;;;;228.63;53.73;;;2.30;99.90;;;;;;4886790;29;20431;-72
2023/12/06 07:12:01;;;;;;;242.37;58.83;;;2.30;99.90;;;;;;4887210;29;20428;-74
2023/12/06 07:14:27;;;;;;;311.13;65.27;;;2.30;99.90;;;;;;4884782;29;20420;-74
2023/12/06 07:16:54;;;;;;;242.77;57.27;;;2.30;99.90;;;;;;4884742;29;20195;-72
2023/12/06 07:19:20;;;;;;;245.03;61.57;;;2.30;99.90;;;;;;4884082;29;20590;-72
2023/12/06 07:21:46;;;;;;;230.53;59.03;;;2.40;99.90;;;;;;4883856;29;20424;-72
2023/12/06 07:24:12;;;;;;;195.13;52.83;;;2.40;99.90;;;;;;4886373;29;20459;-74
2023/12/06 07:26:39;;;;;;;222.17;55.90;;;2.40;99.90;;;;;;4884047;29;20235;-72
2023/12/06 07:29:05;;;;;;;242.63;58.80;;;2.40;99.90;;;;;;4884694;29;20826;-71
2023/12/06 07:31:30;;;;;;;183.00;49.30;;;2.40;99.90;;;;;;4886644;29;20436;-76
2023/12/06 07:33:56;;;;;;;273.93;64.93;;;2.40;99.90;;;;;;4884964;29;20420;-70
2023/12/06 07:36:22;;;;;;;236.90;57.00;;;2.40;99.90;;;;;;4885622;29;20215;-71
2023/12/06 07:38:47;;;;;;;268.87;64.80;;;2.50;99.90;;;;;;4885329;29;20199;-75
2023/12/06 07:41:13;;;;;;;316.70;68.50;;;2.50;99.90;;;;;;4887752;29;20187;-74
2023/12/06 07:43:39;;;;;;;253.70;63.43;;;2.50;99.90;;;;;;4888089;29;20435;-73
2023/12/06 07:46:05;;;;;;;222.53;58.30;;;2.50;99.90;;;;;;4882209;29;21230;-73
2023/12/06 07:48:31;;;;;;;302.13;66.30;;;2.50;99.90;;;;;;4878941;29;20510;-75
2023/12/06 07:50:57;;;;;;;255.47;61.57;;;2.50;99.90;;;;;;4887370;29;20239;-72
2023/12/06 07:53:23;;;;;;;261.97;63.00;;;2.50;99.90;;;;;;4890956;29;20425;-74
2023/12/06 07:55:49;;;;;;;227.40;58.57;;;2.60;99.90;;;;;;4890493;29;20470;-73
2023/12/06 07:58:16;;;;;;;244.73;62.33;;;2.60;99.90;;;;;;4878891;29;20476;-74
2023/12/06 08:00:42;;;;;;;237.20;59.23;;;2.60;99.90;;;;;;4877856;29;20210;-73
2023/12/06 08:03:08;;;;;;;233.20;59.93;;;2.60;99.90;;;;;;4882474;29;20432;-73
2023/12/06 08:05:35;;;;;;;236.63;58.87;;;2.60;99.90;;;;;;4890451;29;20227;-76
2023/12/06 08:08:01;;;;;;;203.43;57.93;;;2.60;99.90;;;;;;4889600;29;20492;-72
2023/12/06 08:10:29;;;;;;;301.63;62.97;;;2.70;99.90;;;;;;4885821;29;20464;-70
2023/12/06 08:12:55;;;;;;;226.13;54.37;;;2.70;99.90;;;;;;4884662;29;20521;-73
2023/12/06 08:15:21;;;;;;;187.60;53.77;;;2.70;99.90;;;;;;4888707;29;20436;-73
2023/12/06 08:17:47;;;;;;;237.63;57.27;;;2.70;99.90;;;;;;4871392;29;20516;-72
2023/12/06 08:20:13;;;;;;;201.37;50.83;;;2.70;99.90;;;;;;4889774;29;20448;-74
2023/12/06 08:22:38;;;;;;;188.73;50.93;;;2.70;99.90;;;;;;4873483;29;20615;-73
2023/12/06 08:25:06;;;;;;;177.53;48.50;;;2.80;99.90;;;;;;4872505;29;20243;-72
2023/12/06 08:27:34;;;;;;;224.43;56.10;;;2.80;99.90;;;;;;4886346;29;20227;-73
2023/12/06 08:30:00;;;;;;;203.17;54.40;;;2.80;99.90;;;;;;4881841;29;20452;-72
2023/12/06 08:32:27;;;;;;;226.23;56.43;;;2.80;99.90;;;;;;4885019;29;20437;-73
2023/12/06 08:34:53;;;;;;;238.40;58.40;;;2.80;99.90;;;;;;4890812;29;20503;-75
2023/12/06 08:37:19;;;;;;;232.33;60.57;;;2.90;99.90;;;;;;4888618;29;20495;-71
2023/12/06 08:39:45;;;;;;;235.53;62.57;;;2.90;99.90;;;;;;4887370;29;20452;-73
2023/12/06 08:42:17;;;;;;;183.00;50.50;;;2.90;99.90;;;;;;4885021;29;20192;-72
2023/12/06 08:44:43;;;;;;;196.47;51.07;;;2.90;99.90;;;;;;4890784;29;20204;-74
2023/12/06 08:47:10;;;;;;;248.33;60.23;;;2.90;99.90;;;;;;4874606;29;20460;-76
2023/12/06 08:49:39;;;;;;;231.67;60.60;;;3.00;99.90;;;;;;4885196;29;20442;-73
2023/12/06 08:52:06;;;;;;;247.03;62.97;;;3.00;99.90;;;;;;4893996;29;20429;-72
2023/12/06 08:54:35;;;;;;;262.50;63.83;;;3.00;99.90;;;;;;4888146;29;20420;-75
2023/12/06 08:57:04;;;;;;;264.63;61.93;;;3.00;99.90;;;;;;4872978;29;20536;-70
2023/12/06 08:59:30;;;;;;;240.17;58.23;;;3.00;99.90;;;;;;4892825;29;20416;-73
2023/12/06 09:01:56;;;;;;;194.80;52.67;;;3.00;99.90;;;;;;4888793;29;20511;-72
2023/12/06 09:04:22;;;;;;;226.13;60.80;;;3.00;99.90;;;;;;4892105;29;20200;-78
2023/12/06 09:06:47;;;;;;;311.07;64.10;;;3.10;99.90;;;;;;4870552;29;20472;-74
2023/12/06 09:09:17;;;;;;;218.57;56.20;;;3.10;99.90;;;;;;4892360;29;20456;-74
2023/12/06 09:11:44;;;;;;;192.87;49.60;;;3.10;99.90;;;;;;4888219;29;20221;-73
2023/12/06 09:14:10;;;;;;;153.30;44.10;;;3.20;99.90;;;;;;4890211;29;20425;-75
2023/12/06 09:16:36;;;;;;;155.93;46.87;;;3.20;99.90;;;;;;4892528;29;20482;-73
2023/12/06 09:19:03;;;;;;;211.70;54.63;;;3.30;99.90;;;;;;4884820;29;20425;-76
2023/12/06 09:21:43;;;;;;;260.23;58.73;;;3.30;99.90;;;;;;4888150;29;20435;-72
2023/12/06 09:24:13;;;;;;;158.33;46.27;;;3.30;99.90;;;;;;4886835;29;20724;-74
2023/12/06 09:26:39;;;;;;;207.80;50.77;;;3.30;99.90;;;;;;4873635;29;20487;-72
2023/12/06 09:29:08;;;;;;;194.57;49.40;;;3.30;99.90;;;;;;4892541;29;20428;-75
2023/12/06 09:31:36;;;;;;;177.57;48.83;;;3.40;99.90;;;;;;4885351;29;20512;-77
2023/12/06 09:34:02;;;;;;;171.07;45.70;;;3.40;99.90;;;;;;4896709;29;20465;-76
2023/12/06 09:36:29;;;;;;;155.10;46.53;;;3.40;99.90;;;;;;4878420;29;20500;-72
2023/12/06 09:38:58;;;;;;;166.07;50.93;;;3.40;99.90;;;;;;4876027;29;20489;-76
2023/12/06 09:41:28;;;;;;;175.17;47.73;;;3.50;99.90;;;;;;4890722;29;20454;-75
2023/12/06 09:52:34;;;;;;;187.20;50.03;;;3.60;99.90;;;;;;4895156;29;20513;-76
2023/12/06 09:55:00;;;;;;;305.60;60.67;;;3.60;99.90;;;;;;4881550;29;20460;-77
2023/12/06 09:57:27;;;;;;;198.27;55.33;;;3.60;99.90;;;;;;4871606;29;20441;-79
2023/12/06 09:59:53;;;;;;;208.60;54.40;;;3.60;99.90;;;;;;4879165;29;20424;-77
2023/12/06 10:02:19;;;;;;;243.67;56.37;;;3.70;99.90;;;;;;4894864;29;20431;-78
2023/12/06 10:04:45;;;;;;;146.53;44.63;;;3.70;99.90;;;;;;4865286;29;20531;-79
2023/12/06 10:07:11;;;;;;;167.43;49.47;;;3.70;99.90;;;;;;4883621;29;20772;-78
2023/12/06 10:09:37;;;;;;;166.63;46.57;;;3.70;99.90;;;;;;4882263;29;20439;-79
2023/12/06 10:12:09;;;;;;;147.80;43.70;;;3.80;99.90;;;;;;4894816;29;20871;-79
2023/12/06 10:14:35;;;;;;;235.43;54.20;;;3.80;99.90;;;;;;4865695;29;20463;-79
2023/12/06 10:17:02;;;;;;;221.57;58.33;;;3.80;99.90;;;;;;4881416;29;20501;-78
2023/12/06 10:19:30;;;;;;;205.17;56.10;;;3.80;99.90;;;;;;4878072;29;20444;-77
2023/12/06 10:21:58;;;;;;;258.17;57.10;;;3.80;99.90;;;;;;4899110;29;20427;-78
2023/12/06 10:24:25;;;;;;;136.50;43.20;;;3.80;99.90;;;;;;4867264;29;20444;-78
2023/12/06 10:27:23;;;;;;;154.30;45.13;;;3.80;99.90;;;;;;4821931;29;20487;-79
2023/12/06 10:29:53;;;;;;;147.90;44.90;;;3.80;99.90;;;;;;4840730;29;20441;-79
2023/12/06 10:32:20;;;;;;;134.03;43.30;;;3.90;99.90;;;;;;4848903;29;20420;-81
2023/12/06 10:35:09;;;;;;;194.97;52.10;;;4.00;99.90;;;;;;4895426;23;20438;-79
2023/12/06 12:39:04;;;;;;;42.73;25.27;;;5.30;99.90;;;;;;5647022;23;20477;-77
2023/12/06 12:41:32;;;;;;;36.40;24.50;;;5.40;99.90;;;;;;4859292;29;20440;-79
2023/12/06 13:01:15;;;;;;;34.70;21.27;;;5.10;99.90;;;;;;4455507;27;20494;-81
2023/12/06 13:21:38;;;;;;;31.67;20.70;;;5.10;99.90;;;;;;5441701;23;20510;-80
2023/12/06 13:24:20;;;;;;;26.67;20.03;;;5.20;99.90;;;;;;4868385;29;20452;-81
2023/12/06 13:40:42;;;;;;;27.17;17.53;;;4.80;99.90;;;;;;4882672;24;20518;-81
2023/12/06 13:43:19;;;;;;;27.20;17.50;;;4.70;99.90;;;;;;4859743;29;20418;-81
2023/12/06 14:07:24;;;;;;;21.73;16.03;;;4.90;99.90;;;;;;5875104;23;20594;-79
2023/12/06 14:10:04;;;;;;;32.07;18.80;;;4.80;99.90;;;;;;4838636;29;20464;-81
2023/12/06 14:45:20;;;;;;;21.20;12.53;;;5.30;99.90;;;;;;4980930;23;20878;-74
2023/12/06 14:47:45;;;;;;;20.97;12.17;;;5.30;99.90;;;;;;4860259;29;20474;-74
2023/12/06 14:50:11;;;;;;;19.03;12.33;;;5.30;99.90;;;;;;4860539;29;20453;-75
2023/12/06 14:52:37;;;;;;;13.60;11.07;;;5.40;99.90;;;;;;4865461;29;20187;-74
2023/12/06 14:55:03;;;;;;;19.30;12.07;;;5.40;99.90;;;;;;4861528;29;20292;-74
2023/12/06 14:57:28;;;;;;;15.00;12.33;;;5.40;99.90;;;;;;4873343;29;20188;-74
2023/12/06 14:59:54;;;;;;;17.30;13.13;;;5.40;99.90;;;;;;4857740;29;20437;-74
2023/12/06 15:02:20;;;;;;;14.90;11.10;;;5.40;99.90;;;;;;4864263;29;20200;-74
2023/12/06 15:04:45;;;;;;;13.60;11.00;;;5.40;99.90;;;;;;4864582;29;20242;-76
2023/12/06 15:07:11;;;;;;;15.57;12.00;;;5.50;99.90;;;;;;4865417;29;20208;-74
2023/12/06 15:09:37;;;;;;;15.20;11.80;;;5.40;99.90;;;;;;4861520;29;20249;-80
2023/12/06 15:12:05;;;;;;;13.30;11.07;;;5.40;99.90;;;;;;4878087;29;20192;-78
2023/12/06 15:14:31;;;;;;;13.57;11.20;;;5.40;99.90;;;;;;4858830;29;20489;-78
2023/12/06 15:16:57;;;;;;;14.93;11.43;;;5.40;99.90;;;;;;4879425;29;20420;-79
2023/12/06 15:19:23;;;;;;;16.37;12.20;;;5.40;99.90;;;;;;4858294;29;20269;-79
2023/12/06 15:30:58;;;;;;;13.90;11.43;;;5.40;99.90;;;;;;4317583;23;20530;-78
2023/12/06 15:33:25;;;;;;;15.03;10.80;;;5.40;99.90;;;;;;4875947;29;20433;-79
2023/12/06 15:35:51;;;;;;;17.00;11.20;;;5.40;99.90;;;;;;4848878;29;20185;-80
2023/12/06 15:38:18;;;;;;;19.27;12.43;;;5.30;99.90;;;;;;4840740;29;20485;-82
2023/12/06 15:46:43;;;;;;;14.77;11.00;;;5.40;99.90;;;;;;5024368;23;20493;-80
2023/12/06 15:49:10;;;;;;;15.70;11.07;;;5.40;99.90;;;;;;4853721;29;20500;-80
2023/12/06 16:00:06;;;;;;;9.87;8.10;;;5.40;99.90;;;;;;4600966;23;20503;-80
2023/12/06 16:03:00;;;;;;;17.60;10.43;;;5.40;99.90;;;;;;4865865;29;20380;-82
2023/12/06 16:05:27;;;;;;;19.60;11.30;;;5.40;99.90;;;;;;4848594;29;20458;-81
2023/12/06 16:07:53;;;;;;;12.80;10.43;;;5.40;99.90;;;;;;4833989;29;20453;-81
2023/12/06 16:10:32;;;;;;;13.20;8.90;;;5.40;99.90;;;;;;4859037;29;20425;-81
2023/12/06 16:13:26;;;;;;;12.70;9.50;;;5.30;99.90;;;;;;5008838;23;20491;-79
2023/12/06 16:18:55;;;;;;;14.90;11.67;;;5.30;99.90;;;;;;5018961;23;20479;-80
2023/12/06 16:21:21;;;;;;;13.80;10.90;;;5.30;99.90;;;;;;4867866;29;20442;-80
2023/12/06 16:29:34;;;;;;;16.40;9.80;;;5.40;99.90;;;;;;4869038;29;20507;-79
2023/12/06 16:32:01;;;;;;;19.47;12.80;;;5.30;99.90;;;;;;4886224;29;20405;-80
2023/12/06 16:34:29;;;;;;;20.00;12.47;;;5.40;99.90;;;;;;4867185;29;20461;-79
2023/12/06 16:36:56;;;;;;;16.70;10.30;;;5.40;99.90;;;;;;4867264;29;20697;-81
2023/12/06 16:39:24;;;;;;;20.63;11.97;;;5.40;99.90;;;;;;4851727;29;20429;-79
2023/12/06 16:41:51;;;;;;;14.03;10.73;;;5.40;99.90;;;;;;4835683;29;20438;-81
2023/12/06 16:44:17;;;;;;;12.93;9.00;;;5.40;99.90;;;;;;4850359;29;20430;-79
2023/12/06 16:46:43;;;;;;;13.90;11.10;;;5.40;99.90;;;;;;4847906;29;20504;-79
2023/12/06 16:49:09;;;;;;;15.10;10.67;;;5.40;99.90;;;;;;4850577;29;20411;-81
2023/12/06 16:51:37;;;;;;;16.37;11.30;;;5.40;99.90;;;;;;4848280;29;20437;-80
2023/12/06 16:54:04;;;;;;;14.77;10.20;;;5.30;99.90;;;;;;4848499;29;20402;-79